Time;durP1;ratioP1;P1;durP2;ratioP2;P2;SDS_P1;SDS_P2;PMS_P1;PMS_P2;Temp;Humidity;BMP_temperature;BMP_pressure;BME280_temperature;BME280_humidity;BME280_pressure;Samples;Min_cycle;Max_cycle;Signal;HPM_P1;HPM_P2
2022/04/05 00:02:06;;;;;;;10.05;5.32;;;7.70;33.50;;;;;;5028184;28;20229;-77
2022/04/05 00:04:33;;;;;;;9.77;6.20;;;7.70;33.50;;;;;;5030205;28;20236;-76
2022/04/05 00:07:00;;;;;;;9.95;7.03;;;7.70;34.50;;;;;;5027613;28;20212;-77
2022/04/05 00:09:29;;;;;;;8.75;6.38;;;7.70;34.00;;;;;;5024892;28;20290;-77
2022/04/05 00:11:56;;;;;;;8.15;6.63;;;7.70;34.20;;;;;;5041048;28;20211;-76
2022/04/05 00:14:22;;;;;;;7.03;6.32;;;7.60;34.40;;;;;;5042598;28;20217;-79
2022/04/05 00:16:49;;;;;;;7.80;5.68;;;7.60;35.20;;;;;;5043721;28;20247;-77
2022/04/05 00:19:19;;;;;;;8.88;6.55;;;7.60;34.60;;;;;;5047183;28;20289;-76
2022/04/05 00:21:46;;;;;;;8.55;6.32;;;7.60;34.60;;;;;;5047334;28;20223;-76
2022/04/05 00:24:13;;;;;;;7.45;6.03;;;7.60;34.90;;;;;;5049197;28;20206;-78
2022/04/05 00:26:41;;;;;;;7.43;6.55;;;7.60;34.80;;;;;;5049524;28;20207;-76
2022/04/05 00:29:09;;;;;;;8.65;6.75;;;7.60;35.10;;;;;;5046201;28;20266;-76
2022/04/05 00:31:36;;;;;;;8.93;7.07;;;7.60;34.90;;;;;;5033160;28;20208;-76
2022/04/05 00:34:03;;;;;;;8.73;6.78;;;7.60;34.70;;;;;;5020435;28;20203;-76
2022/04/05 00:36:30;;;;;;;7.15;5.80;;;7.60;34.90;;;;;;5018434;28;20267;-78
2022/04/05 00:38:56;;;;;;;9.25;6.00;;;7.60;34.60;;;;;;5019550;28;20282;-78
2022/04/05 00:41:23;;;;;;;8.77;6.63;;;7.60;34.90;;;;;;5024687;28;20551;-75
2022/04/05 00:43:52;;;;;;;9.15;6.35;;;7.60;34.70;;;;;;5029254;28;20239;-77
2022/04/05 00:46:19;;;;;;;7.43;6.72;;;7.60;34.40;;;;;;5033310;28;20231;-77
2022/04/05 00:48:49;;;;;;;7.32;6.57;;;7.50;35.30;;;;;;5034029;28;20246;-76
2022/04/05 00:51:20;;;;;;;10.43;7.05;;;7.60;34.60;;;;;;5050546;28;20186;-79
2022/04/05 00:53:48;;;;;;;7.78;6.65;;;7.60;34.40;;;;;;5046210;28;20274;-75
2022/04/05 00:56:16;;;;;;;7.55;6.22;;;7.50;34.50;;;;;;5033657;28;20234;-78
2022/04/05 00:58:46;;;;;;;9.18;6.45;;;7.60;34.80;;;;;;5022513;28;20223;-77
2022/04/05 01:01:18;;;;;;;7.15;6.03;;;7.60;34.60;;;;;;5033036;28;20207;-78
2022/04/05 01:03:48;;;;;;;7.38;5.70;;;7.60;34.60;;;;;;5040988;28;20211;-76
2022/04/05 01:06:17;;;;;;;7.47;6.15;;;7.60;34.70;;;;;;5041759;28;20215;-77
2022/04/05 01:08:46;;;;;;;7.72;6.40;;;7.60;34.90;;;;;;5043199;28;20235;-76
2022/04/05 01:11:13;;;;;;;9.45;7.38;;;7.60;34.80;;;;;;5044929;28;20233;-76
2022/04/05 01:13:41;;;;;;;8.50;6.25;;;7.60;35.00;;;;;;5053640;28;20198;-77
2022/04/05 01:16:08;;;;;;;7.40;6.40;;;7.60;35.20;;;;;;5048200;28;20212;-76
2022/04/05 01:18:36;;;;;;;7.57;6.88;;;7.60;35.70;;;;;;5033797;28;20269;-78
2022/04/05 01:21:03;;;;;;;11.10;6.70;;;7.50;36.30;;;;;;5039094;28;20203;-76
2022/04/05 01:23:30;;;;;;;7.20;6.15;;;7.50;37.10;;;;;;5036128;28;20211;-77
2022/04/05 01:25:59;;;;;;;7.53;6.22;;;7.40;38.20;;;;;;5019909;28;20203;-76
2022/04/05 01:28:26;;;;;;;8.40;6.28;;;7.40;38.20;;;;;;5020743;28;20580;-77
2022/04/05 01:30:53;;;;;;;8.65;6.63;;;7.40;38.20;;;;;;5037556;28;20319;-76
2022/04/05 01:33:20;;;;;;;7.82;6.55;;;7.40;38.20;;;;;;5036341;28;20211;-76
2022/04/05 01:35:48;;;;;;;7.63;6.32;;;7.40;38.20;;;;;;5037864;28;20645;-77
2022/04/05 01:38:15;;;;;;;7.40;6.60;;;7.30;38.10;;;;;;5037395;28;20590;-76
2022/04/05 01:40:42;;;;;;;8.10;6.45;;;7.30;38.10;;;;;;5037647;28;20596;-77
2022/04/05 01:43:10;;;;;;;7.80;6.68;;;7.30;38.10;;;;;;5037528;28;20214;-76
2022/04/05 01:45:37;;;;;;;11.75;6.18;;;7.30;38.10;;;;;;5036992;28;20199;-76
2022/04/05 01:48:04;;;;;;;7.18;6.47;;;7.30;38.10;;;;;;5036447;28;20203;-76
2022/04/05 01:50:32;;;;;;;6.82;6.10;;;7.30;38.10;;;;;;5037238;28;20253;-76
2022/04/05 01:53:00;;;;;;;7.97;6.15;;;7.30;38.10;;;;;;5050143;28;20218;-77
2022/04/05 01:55:27;;;;;;;8.70;7.13;;;7.30;38.10;;;;;;5036461;28;20576;-76
2022/04/05 01:57:54;;;;;;;8.88;5.70;;;7.30;38.10;;;;;;5037617;28;20322;-76
2022/04/05 02:00:22;;;;;;;8.50;7.05;;;7.30;38.10;;;;;;5023353;28;20200;-76
2022/04/05 02:02:49;;;;;;;10.23;6.65;;;7.30;38.10;;;;;;5027308;28;20219;-77
2022/04/05 02:05:16;;;;;;;7.82;6.22;;;7.30;38.10;;;;;;5033360;28;20299;-77
2022/04/05 02:07:43;;;;;;;8.02;5.72;;;7.30;38.10;;;;;;5027513;28;20706;-77
2022/04/05 02:10:10;;;;;;;8.27;6.60;;;7.40;38.20;;;;;;5026877;28;20267;-75
2022/04/05 02:12:37;;;;;;;6.60;5.97;;;7.40;38.20;;;;;;5030200;28;20282;-75
2022/04/05 02:15:05;;;;;;;10.43;6.25;;;7.40;38.20;;;;;;5034163;28;20227;-75
2022/04/05 02:17:33;;;;;;;8.23;5.82;;;7.40;38.20;;;;;;5028749;28;20227;-76
2022/04/05 02:20:00;;;;;;;7.30;6.40;;;7.40;37.70;;;;;;5020005;28;20232;-76
2022/04/05 02:22:27;;;;;;;6.53;5.75;;;7.40;38.00;;;;;;5017083;28;20207;-76
2022/04/05 02:24:54;;;;;;;7.65;6.05;;;7.50;37.90;;;;;;5023160;28;20207;-76
2022/04/05 02:27:21;;;;;;;6.75;5.85;;;7.50;38.00;;;;;;5022764;28;20200;-76
2022/04/05 02:29:48;;;;;;;7.05;6.32;;;7.50;38.30;;;;;;5022851;28;20231;-76
2022/04/05 02:32:15;;;;;;;7.35;6.15;;;7.40;38.20;;;;;;5036039;28;20210;-76
2022/04/05 02:34:43;;;;;;;10.05;5.85;;;7.40;38.20;;;;;;5031611;28;20204;-77
2022/04/05 02:37:10;;;;;;;8.30;6.45;;;7.40;38.20;;;;;;5015880;28;20232;-78
2022/04/05 02:39:37;;;;;;;6.78;5.63;;;7.40;38.20;;;;;;5021795;28;20215;-77
2022/04/05 02:42:04;;;;;;;7.93;6.60;;;7.40;38.20;;;;;;5039050;28;20294;-76
2022/04/05 02:44:33;;;;;;;7.38;6.60;;;7.40;38.20;;;;;;5042573;28;20223;-77
2022/04/05 02:47:00;;;;;;;11.00;6.40;;;7.40;38.20;;;;;;5034843;28;20238;-76
2022/04/05 02:49:27;;;;;;;7.00;5.93;;;7.40;38.20;;;;;;5021754;28;20274;-76
2022/04/05 02:51:55;;;;;;;7.50;6.38;;;7.40;38.20;;;;;;5016352;28;20274;-78
2022/04/05 02:54:22;;;;;;;7.60;6.05;;;7.40;38.90;;;;;;5015431;28;20204;-76
2022/04/05 02:56:49;;;;;;;7.93;6.90;;;7.40;39.60;;;;;;5015374;28;20228;-75
2022/04/05 02:59:16;;;;;;;6.88;5.90;;;7.30;40.40;;;;;;5015216;28;20315;-76
2022/04/05 03:01:43;;;;;;;6.68;5.97;;;7.30;40.30;;;;;;5032886;28;20304;-76
2022/04/05 03:04:10;;;;;;;6.55;5.95;;;7.30;40.30;;;;;;5015347;28;20203;-75
2022/04/05 03:06:37;;;;;;;8.80;5.63;;;7.20;39.40;;;;;;5015675;28;20295;-76
2022/04/05 03:09:06;;;;;;;8.10;6.20;;;7.30;39.40;;;;;;5016626;28;20298;-76
2022/04/05 03:11:33;;;;;;;7.05;6.10;;;7.30;40.00;;;;;;5023575;28;20211;-77
2022/04/05 03:14:00;;;;;;;8.45;6.60;;;7.30;41.00;;;;;;5045317;28;20229;-76
2022/04/05 03:16:27;;;;;;;7.63;5.60;;;7.20;41.60;;;;;;5038259;28;20263;-77
2022/04/05 03:18:54;;;;;;;9.75;6.53;;;7.20;41.90;;;;;;5036325;28;20290;-77
2022/04/05 03:21:21;;;;;;;6.93;6.07;;;7.10;42.60;;;;;;5036245;28;20215;-79
2022/04/05 03:23:48;;;;;;;7.65;6.75;;;7.10;43.10;;;;;;5041125;28;20666;-77
2022/04/05 03:26:16;;;;;;;7.18;6.45;;;7.00;44.90;;;;;;5045396;28;20203;-76
2022/04/05 03:28:43;;;;;;;9.52;6.70;;;6.80;46.20;;;;;;5024625;28;20227;-75
2022/04/05 03:31:10;;;;;;;8.68;6.93;;;6.70;47.40;;;;;;5015778;28;20207;-76
2022/04/05 03:33:37;;;;;;;7.65;6.85;;;6.70;47.40;;;;;;5024844;28;20690;-77
2022/04/05 03:36:05;;;;;;;10.18;7.20;;;6.70;47.90;;;;;;5035566;28;20231;-77
2022/04/05 03:38:32;;;;;;;10.13;6.72;;;6.60;49.80;;;;;;5035609;28;20231;-76
2022/04/05 03:40:59;;;;;;;8.63;6.88;;;6.60;52.00;;;;;;5034901;28;20357;-76
2022/04/05 03:43:27;;;;;;;8.32;6.57;;;6.40;52.90;;;;;;5033762;28;20671;-77
2022/04/05 03:45:54;;;;;;;9.50;6.60;;;6.40;54.00;;;;;;5015328;28;20208;-77
2022/04/05 03:48:21;;;;;;;7.68;6.78;;;6.30;54.90;;;;;;5014916;28;20277;-77
2022/04/05 03:50:48;;;;;;;8.20;7.20;;;6.30;56.50;;;;;;5016758;28;20211;-76
2022/04/05 03:53:15;;;;;;;8.73;6.55;;;6.20;57.00;;;;;;5015458;28;20215;-78
2022/04/05 03:55:42;;;;;;;8.43;6.90;;;6.20;57.40;;;;;;5030856;28;20207;-77
2022/04/05 03:58:12;;;;;;;8.15;7.35;;;6.20;58.80;;;;;;5034526;28;20235;-79
2022/04/05 04:00:40;;;;;;;9.68;7.53;;;6.20;59.40;;;;;;5021145;28;20247;-77
2022/04/05 04:03:07;;;;;;;13.68;8.02;;;6.10;61.00;;;;;;5015212;28;20219;-77
2022/04/05 04:05:34;;;;;;;10.10;8.10;;;6.00;62.40;;;;;;5029443;28;20257;-77
2022/04/05 04:08:01;;;;;;;9.75;8.00;;;5.90;63.10;;;;;;5030260;28;20200;-80
2022/04/05 04:10:28;;;;;;;12.15;8.55;;;5.90;65.00;;;;;;5022331;28;20208;-76
2022/04/05 04:12:55;;;;;;;9.52;7.72;;;5.80;65.00;;;;;;5016252;28;20235;-77
2022/04/05 04:15:22;;;;;;;14.10;8.48;;;5.80;65.00;;;;;;5015986;28;20291;-76
2022/04/05 04:17:50;;;;;;;10.45;7.78;;;5.80;65.60;;;;;;5016001;28;20227;-78
2022/04/05 04:20:17;;;;;;;14.55;8.23;;;5.80;65.00;;;;;;5015556;28;20200;-76
2022/04/05 04:22:44;;;;;;;9.85;7.95;;;5.80;65.00;;;;;;5016673;28;20222;-77
2022/04/05 04:25:11;;;;;;;11.38;8.57;;;5.80;65.00;;;;;;5027534;28;20207;-79
2022/04/05 04:27:38;;;;;;;12.27;8.82;;;5.90;65.00;;;;;;5043494;28;20237;-77
2022/04/05 04:30:06;;;;;;;9.43;7.90;;;5.90;63.90;;;;;;5040069;28;20277;-76
2022/04/05 04:32:33;;;;;;;8.18;7.32;;;5.90;63.20;;;;;;5021981;28;20210;-76
2022/04/05 04:35:01;;;;;;;9.68;7.55;;;5.90;61.60;;;;;;5034289;28;20664;-76
2022/04/05 04:37:28;;;;;;;11.25;8.65;;;5.90;62.00;;;;;;5033356;28;20312;-76
2022/04/05 04:39:55;;;;;;;10.45;7.68;;;5.90;61.50;;;;;;5033876;28;20226;-76
2022/04/05 04:42:22;;;;;;;10.07;7.60;;;6.00;61.70;;;;;;5033405;28;20231;-76
2022/04/05 04:44:49;;;;;;;10.52;8.00;;;6.00;61.40;;;;;;5033661;28;20207;-78
2022/04/05 04:47:17;;;;;;;11.02;7.95;;;6.00;61.30;;;;;;5033768;28;20671;-77
2022/04/05 04:49:44;;;;;;;10.05;7.55;;;6.00;61.10;;;;;;5034393;28;20318;-77
2022/04/05 04:52:12;;;;;;;8.80;7.35;;;6.00;61.10;;;;;;5029103;28;20450;-77
2022/04/05 04:54:39;;;;;;;10.32;7.90;;;6.00;60.30;;;;;;5015408;28;20208;-76
2022/04/05 04:57:06;;;;;;;8.95;7.25;;;6.00;59.60;;;;;;5019260;28;20761;-76
2022/04/05 05:07:37;;;;;;;10.57;8.13;;;6.00;59.80;;;;;;5321057;23;20240;-81
2022/04/05 05:20:03;;;;;;;10.52;7.18;;;6.00;59.30;;;;;;5025036;28;20281;-80
2022/04/05 05:52:31;;;;;;;10.10;8.63;;;6.00;59.70;;;;;;6063177;22;20519;-81
2022/04/05 05:54:59;;;;;;;11.95;7.70;;;6.00;59.60;;;;;;5053325;28;20207;-81
2022/04/05 06:07:09;;;;;;;7.47;6.78;;;6.00;59.90;;;;;;4914637;29;20340;-80
2022/04/05 06:09:38;;;;;;;11.60;8.10;;;6.10;59.70;;;;;;4919461;29;20232;-79
2022/04/05 06:12:30;;;;;;;9.05;7.10;;;6.10;59.80;;;;;;4919786;29;20216;-80
2022/04/05 06:14:59;;;;;;;13.15;8.45;;;6.10;59.80;;;;;;4921980;29;20212;-80
2022/04/05 06:17:32;;;;;;;10.90;8.20;;;6.10;60.30;;;;;;4922221;29;20216;-79
2022/04/05 06:19:59;;;;;;;10.75;7.35;;;6.10;59.80;;;;;;4922291;29;20237;-79
2022/04/05 06:22:26;;;;;;;8.98;8.07;;;6.20;60.00;;;;;;4921474;29;20240;-80
2022/04/05 06:24:56;;;;;;;19.48;8.40;;;6.20;60.10;;;;;;4921915;29;20271;-80
2022/04/05 06:27:24;;;;;;;9.65;8.27;;;6.20;60.40;;;;;;4921931;29;20223;-79
2022/04/05 06:29:51;;;;;;;15.55;8.60;;;6.20;60.60;;;;;;4921813;29;20267;-79
2022/04/05 06:32:19;;;;;;;10.05;8.38;;;6.30;60.50;;;;;;4921790;29;20212;-79
2022/04/05 06:34:46;;;;;;;11.52;8.07;;;6.20;59.80;;;;;;4921354;29;20214;-79
2022/04/05 06:37:13;;;;;;;8.70;7.38;;;6.30;60.00;;;;;;4948365;28;20231;-79
2022/04/05 06:39:40;;;;;;;9.75;7.43;;;6.30;59.60;;;;;;5016070;28;20235;-80
2022/04/05 06:42:09;;;;;;;11.10;8.50;;;6.30;59.60;;;;;;5014739;28;20272;-80
2022/04/05 06:44:38;;;;;;;11.60;8.43;;;6.30;59.40;;;;;;5014814;28;20192;-81
2022/04/05 06:47:05;;;;;;;7.93;6.53;;;6.30;59.40;;;;;;5023289;28;20219;-80
2022/04/05 06:49:32;;;;;;;9.35;7.97;;;6.30;59.00;;;;;;5020836;28;20243;-80
2022/04/05 06:51:59;;;;;;;11.50;7.95;;;6.40;59.00;;;;;;5007511;28;20224;-79
2022/04/05 06:54:26;;;;;;;9.18;7.57;;;6.60;58.50;;;;;;5021404;28;20218;-79
2022/04/05 06:56:53;;;;;;;14.07;7.72;;;6.70;56.80;;;;;;5023711;28;20258;-80
2022/04/05 06:59:21;;;;;;;7.80;6.95;;;6.70;56.80;;;;;;5019282;28;20300;-78
2022/04/05 07:01:48;;;;;;;9.52;6.95;;;6.80;56.40;;;;;;5020579;28;20283;-79
2022/04/05 07:04:15;;;;;;;9.15;7.57;;;6.80;55.40;;;;;;5021958;28;20215;-80
2022/04/05 07:06:42;;;;;;;8.35;6.85;;;6.90;54.30;;;;;;5024292;28;20211;-79
2022/04/05 07:09:09;;;;;;;13.70;7.95;;;7.00;54.40;;;;;;5025359;28;20226;-79
2022/04/05 07:11:37;;;;;;;9.85;7.85;;;7.00;53.70;;;;;;5025404;28;20211;-79
2022/04/05 07:14:04;;;;;;;10.13;7.15;;;7.10;53.70;;;;;;5025653;28;20216;-79
2022/04/05 07:16:35;;;;;;;8.45;7.03;;;7.10;52.70;;;;;;5034663;28;20218;-79
2022/04/05 07:19:02;;;;;;;8.35;7.55;;;7.20;52.20;;;;;;5028319;28;20259;-80
2022/04/05 07:21:29;;;;;;;8.90;7.03;;;7.20;51.80;;;;;;5039554;28;20215;-79
2022/04/05 07:23:56;;;;;;;8.75;7.10;;;7.20;51.80;;;;;;5016358;28;20762;-79
2022/04/05 07:26:23;;;;;;;12.45;7.82;;;7.10;52.10;;;;;;5039215;28;20610;-79
2022/04/05 07:28:50;;;;;;;9.13;7.28;;;7.10;52.50;;;;;;5035620;28;20243;-80
2022/04/05 07:31:17;;;;;;;8.88;6.95;;;7.10;54.60;;;;;;5039612;28;20200;-79
2022/04/05 07:33:46;;;;;;;9.95;7.53;;;7.00;54.70;;;;;;5024654;28;20224;-79
2022/04/05 07:36:13;;;;;;;13.60;9.88;;;6.80;56.40;;;;;;5020748;28;20219;-80
2022/04/05 07:38:40;;;;;;;9.50;7.22;;;6.80;56.90;;;;;;5022437;28;20314;-78
2022/04/05 07:41:06;;;;;;;13.38;7.60;;;6.80;57.30;;;;;;5019791;28;20214;-81
2022/04/05 07:43:34;;;;;;;10.55;8.32;;;6.90;57.00;;;;;;5037134;28;20227;-79
2022/04/05 07:46:01;;;;;;;11.52;7.55;;;7.00;57.10;;;;;;5022878;28;20204;-80
2022/04/05 07:48:29;;;;;;;11.30;8.40;;;7.00;57.10;;;;;;5021941;28;20636;-80
2022/04/05 07:51:00;;;;;;;10.35;7.38;;;7.10;57.10;;;;;;5021499;28;20235;-78
2022/04/05 07:53:26;;;;;;;9.95;8.02;;;7.10;57.10;;;;;;5023269;28;20207;-78
2022/04/05 07:55:56;;;;;;;12.55;7.47;;;7.20;56.20;;;;;;5022330;28;20207;-80
2022/04/05 07:58:23;;;;;;;11.32;7.60;;;7.20;56.00;;;;;;5031871;28;20230;-78
2022/04/05 08:00:50;;;;;;;9.02;7.47;;;7.20;55.10;;;;;;5028919;28;20267;-78
2022/04/05 08:03:18;;;;;;;7.40;5.63;;;7.30;54.40;;;;;;5033244;28;20188;-80
2022/04/05 08:05:45;;;;;;;10.13;6.95;;;7.30;53.80;;;;;;5033185;28;20199;-79
2022/04/05 08:08:14;;;;;;;8.75;7.22;;;7.30;53.50;;;;;;5029255;28;20264;-79
2022/04/05 08:10:41;;;;;;;11.50;7.43;;;7.40;53.60;;;;;;5027254;28;20203;-78
2022/04/05 08:13:08;;;;;;;8.13;7.15;;;7.40;53.40;;;;;;5029843;28;20219;-79
2022/04/05 08:15:35;;;;;;;8.10;7.30;;;7.40;52.70;;;;;;5035930;28;20203;-79
2022/04/05 08:18:02;;;;;;;11.43;7.30;;;7.40;52.50;;;;;;5035511;28;20254;-77
2022/04/05 08:20:29;;;;;;;10.82;7.63;;;7.40;52.40;;;;;;5033880;28;20235;-78
2022/04/05 08:22:56;;;;;;;10.15;6.70;;;7.50;52.30;;;;;;5037019;28;20180;-76
2022/04/05 08:25:25;;;;;;;8.00;6.60;;;7.50;52.40;;;;;;5037739;28;20229;-77
2022/04/05 08:27:52;;;;;;;9.52;6.95;;;7.50;51.20;;;;;;5037407;28;20196;-78
2022/04/05 08:30:19;;;;;;;8.82;6.78;;;7.60;51.80;;;;;;5037202;28;20235;-77
2022/04/05 08:32:48;;;;;;;8.38;7.40;;;7.60;51.30;;;;;;5037237;28;20180;-78
2022/04/05 08:35:18;;;;;;;9.20;7.70;;;7.60;51.10;;;;;;5037623;28;20211;-77
2022/04/05 08:37:46;;;;;;;10.85;6.60;;;7.60;50.80;;;;;;5037765;28;20504;-77
2022/04/05 08:40:14;;;;;;;8.75;7.25;;;7.60;50.70;;;;;;5037708;28;20240;-79
2022/04/05 08:42:45;;;;;;;10.05;7.35;;;7.60;51.10;;;;;;5037866;28;20252;-77
2022/04/05 08:45:13;;;;;;;10.23;7.25;;;7.70;50.70;;;;;;5037645;28;20219;-78
2022/04/05 08:47:46;;;;;;;11.60;7.78;;;7.70;50.10;;;;;;5037641;28;20188;-77
2022/04/05 08:50:15;;;;;;;7.60;6.80;;;7.70;50.20;;;;;;5037467;28;20204;-77
2022/04/05 08:52:43;;;;;;;8.98;7.40;;;7.70;50.00;;;;;;5037723;28;20205;-77
2022/04/05 08:55:10;;;;;;;8.88;7.70;;;7.70;49.80;;;;;;5037591;28;20203;-77
2022/04/05 08:57:38;;;;;;;9.23;6.93;;;7.80;48.40;;;;;;5037383;28;20192;-77
2022/04/05 09:00:09;;;;;;;9.95;7.10;;;7.80;49.20;;;;;;5037253;28;20207;-76
2022/04/05 09:02:37;;;;;;;9.38;7.47;;;7.70;48.60;;;;;;5037597;28;20255;-77
2022/04/05 09:05:05;;;;;;;7.40;6.32;;;7.80;48.80;;;;;;5037531;28;20211;-78
2022/04/05 09:07:35;;;;;;;10.30;7.35;;;7.80;49.10;;;;;;5037401;28;20188;-77
2022/04/05 09:10:12;;;;;;;8.27;6.47;;;7.80;48.90;;;;;;5039594;28;20219;-77
2022/04/05 09:12:40;;;;;;;9.63;6.65;;;7.80;49.30;;;;;;5041219;28;20192;-77
2022/04/05 09:15:25;;;;;;;10.43;6.65;;;7.90;49.10;;;;;;5041233;28;20219;-79
2022/04/05 09:17:53;;;;;;;8.32;6.65;;;7.90;48.90;;;;;;5041018;28;20256;-77
2022/04/05 09:20:21;;;;;;;8.48;6.97;;;8.00;48.50;;;;;;5040708;28;20255;-78
2022/04/05 09:22:48;;;;;;;7.40;6.10;;;8.00;48.50;;;;;;5040909;28;20195;-77
2022/04/05 09:25:17;;;;;;;10.48;7.05;;;8.10;48.50;;;;;;5040846;28;20260;-77
2022/04/05 09:27:49;;;;;;;7.85;6.68;;;8.10;48.60;;;;;;5040895;28;20203;-77
2022/04/05 09:30:18;;;;;;;7.65;6.82;;;8.20;48.50;;;;;;5040658;28;20234;-77
2022/04/05 09:32:48;;;;;;;10.43;6.80;;;8.20;48.70;;;;;;5040833;28;20188;-77
2022/04/05 09:35:16;;;;;;;7.40;6.35;;;8.20;48.70;;;;;;5040891;28;20215;-77
2022/04/05 09:37:43;;;;;;;9.88;6.85;;;8.20;48.60;;;;;;5040689;28;20219;-77
2022/04/05 09:40:19;;;;;;;8.32;6.45;;;8.20;48.70;;;;;;5040455;28;20231;-78
2022/04/05 09:43:04;;;;;;;8.55;7.30;;;8.30;48.80;;;;;;5040585;28;20188;-78
2022/04/05 09:45:48;;;;;;;8.50;6.80;;;8.40;48.90;;;;;;5040743;28;20211;-78
2022/04/05 09:48:16;;;;;;;10.38;6.25;;;8.40;47.70;;;;;;5039462;28;20204;-79
2022/04/05 09:51:01;;;;;;;7.47;6.00;;;8.50;47.70;;;;;;5038987;28;20206;-81
2022/04/05 09:53:28;;;;;;;14.27;7.50;;;8.60;46.80;;;;;;5040360;28;20204;-77
2022/04/05 09:56:06;;;;;;;8.63;7.15;;;8.70;46.60;;;;;;5040582;28;20196;-78
2022/04/05 09:58:33;;;;;;;7.95;6.25;;;8.90;46.30;;;;;;5039916;28;20224;-77
2022/04/05 10:01:08;;;;;;;8.85;7.03;;;8.90;45.70;;;;;;5040319;28;20223;-78
2022/04/05 10:03:36;;;;;;;9.32;6.82;;;9.00;46.10;;;;;;5040460;28;20235;-78
2022/04/05 10:06:04;;;;;;;10.10;6.35;;;9.20;45.70;;;;;;5040188;28;20247;-79
2022/04/05 10:08:36;;;;;;;8.88;7.05;;;9.30;45.30;;;;;;5040295;28;20224;-77
2022/04/05 10:11:03;;;;;;;9.45;6.85;;;9.40;44.40;;;;;;5039346;28;20192;-79
2022/04/05 10:13:31;;;;;;;8.77;7.18;;;9.30;43.60;;;;;;5039603;28;20210;-79
2022/04/05 10:16:00;;;;;;;7.97;6.38;;;9.20;44.10;;;;;;5038739;28;20203;-79
2022/04/05 10:18:33;;;;;;;7.80;6.47;;;9.30;43.60;;;;;;5038164;28;20220;-82
2022/04/05 10:21:03;;;;;;;7.72;6.20;;;9.20;44.00;;;;;;5037687;28;20235;-80
2022/04/05 10:23:32;;;;;;;7.25;6.45;;;9.10;44.60;;;;;;5039191;28;20206;-82
2022/04/05 10:25:59;;;;;;;7.97;6.93;;;9.10;44.60;;;;;;5038731;28;20200;-77
2022/04/05 10:28:29;;;;;;;7.05;6.18;;;9.30;44.40;;;;;;5038452;28;20234;-79
2022/04/05 10:31:02;;;;;;;7.18;6.00;;;9.50;44.40;;;;;;5038348;28;20223;-78
2022/04/05 10:33:38;;;;;;;9.27;6.68;;;9.40;44.00;;;;;;5039089;28;20227;-80
2022/04/05 10:36:08;;;;;;;8.68;7.05;;;9.30;44.40;;;;;;5039597;28;20200;-78
2022/04/05 10:38:36;;;;;;;8.52;6.50;;;9.30;44.80;;;;;;5039587;28;20299;-79
2022/04/05 10:41:18;;;;;;;8.73;7.28;;;9.30;44.80;;;;;;5039095;28;20212;-82
2022/04/05 10:43:47;;;;;;;9.32;6.88;;;9.20;45.20;;;;;;5038915;28;20208;-81
2022/04/05 10:46:14;;;;;;;8.63;6.95;;;9.20;45.90;;;;;;5039015;28;20196;-79
2022/04/05 10:48:59;;;;;;;9.55;7.70;;;9.20;45.90;;;;;;5039387;28;20236;-79
2022/04/05 10:51:32;;;;;;;8.35;6.90;;;9.10;46.20;;;;;;5039246;28;20226;-78
2022/04/05 10:54:18;;;;;;;8.05;7.25;;;9.10;46.00;;;;;;5038995;28;20223;-79
2022/04/05 10:57:20;;;;;;;8.25;6.70;;;9.20;46.00;;;;;;5039208;28;20230;-77
2022/04/05 10:59:54;;;;;;;8.27;6.72;;;9.20;45.80;;;;;;5038736;28;20277;-77
2022/04/05 11:02:36;;;;;;;8.00;6.65;;;9.20;45.80;;;;;;5039297;28;20192;-79
2022/04/05 11:05:36;;;;;;;7.70;6.30;;;9.30;45.90;;;;;;5038991;28;20207;-78
2022/04/05 11:08:07;;;;;;;6.43;5.50;;;9.40;45.90;;;;;;5039026;28;20222;-78
2022/04/05 11:10:45;;;;;;;9.05;6.53;;;9.50;45.60;;;;;;5038748;28;20279;-79
2022/04/05 11:13:14;;;;;;;10.57;6.70;;;9.50;45.70;;;;;;5037221;28;20198;-82
2022/04/05 11:15:42;;;;;;;8.98;5.85;;;9.40;45.50;;;;;;5036935;28;20216;-81
2022/04/05 11:18:09;;;;;;;9.05;7.00;;;9.40;45.30;;;;;;5037394;28;20188;-82
2022/04/05 11:20:41;;;;;;;8.20;6.13;;;9.50;45.40;;;;;;5036645;28;20669;-81
2022/04/05 11:23:08;;;;;;;7.40;6.65;;;9.60;45.10;;;;;;5038043;28;20205;-77
2022/04/05 11:25:36;;;;;;;9.00;6.25;;;9.70;45.10;;;;;;5038758;28;20251;-78
2022/04/05 11:28:14;;;;;;;6.07;5.47;;;9.90;45.30;;;;;;5038698;28;20187;-78
2022/04/05 11:30:49;;;;;;;8.23;5.82;;;10.20;43.60;;;;;;5037918;28;20218;-78
2022/04/05 11:33:41;;;;;;;8.20;6.20;;;10.40;43.60;;;;;;5037236;28;20188;-79
2022/04/05 11:36:11;;;;;;;8.82;6.43;;;10.50;43.30;;;;;;5038486;28;21861;-78
2022/04/05 11:38:40;;;;;;;8.32;5.85;;;10.70;43.10;;;;;;5042333;28;20203;-79
2022/04/05 11:41:09;;;;;;;8.90;7.25;;;10.70;42.80;;;;;;5054659;28;20210;-79
2022/04/05 11:43:42;;;;;;;8.75;6.38;;;10.80;42.70;;;;;;5037300;28;20263;-80
2022/04/05 11:46:14;;;;;;;9.45;6.88;;;11.00;42.40;;;;;;5037196;28;20176;-78
2022/04/05 11:48:43;;;;;;;13.68;6.40;;;11.10;42.20;;;;;;5037288;28;20243;-78
2022/04/05 11:51:14;;;;;;;6.75;6.07;;;11.00;42.30;;;;;;5036624;28;20396;-78
2022/04/05 11:53:43;;;;;;;6.35;5.72;;;11.10;42.70;;;;;;5037095;28;20226;-77
2022/04/05 11:56:16;;;;;;;6.80;6.10;;;11.10;43.50;;;;;;5037080;28;20191;-78
2022/04/05 11:58:46;;;;;;;7.90;6.47;;;10.90;43.30;;;;;;5037013;28;20257;-81
2022/04/05 12:01:19;;;;;;;9.20;6.55;;;11.00;43.50;;;;;;5035627;28;20192;-79
2022/04/05 12:03:49;;;;;;;7.35;6.30;;;11.10;43.30;;;;;;5037998;28;20187;-79
2022/04/05 12:08:55;;;;;;;8.43;6.55;;;11.80;41.20;;;;;;5055272;28;20709;-76
2022/04/05 12:11:24;;;;;;;8.90;7.03;;;12.10;40.00;;;;;;5056428;28;20210;-76
2022/04/05 12:13:57;;;;;;;6.25;5.53;;;11.80;39.80;;;;;;5060881;28;20294;-76
2022/04/05 12:16:25;;;;;;;6.38;5.70;;;11.70;41.10;;;;;;5067036;28;20226;-76
2022/04/05 12:18:52;;;;;;;7.82;6.60;;;11.50;40.90;;;;;;5087395;28;20222;-76
2022/04/05 12:21:21;;;;;;;7.43;5.65;;;11.60;41.00;;;;;;5089229;28;20645;-77
2022/04/05 12:23:48;;;;;;;8.77;5.72;;;11.50;40.90;;;;;;5079629;28;20611;-77
2022/04/05 12:26:18;;;;;;;7.03;6.28;;;11.40;41.40;;;;;;5075166;28;20205;-75
2022/04/05 12:28:48;;;;;;;8.30;5.97;;;11.20;43.10;;;;;;5075058;28;20205;-76
2022/04/05 12:31:17;;;;;;;8.63;6.20;;;11.20;43.20;;;;;;5074915;28;20213;-76
2022/04/05 12:33:55;;;;;;;8.60;6.30;;;11.10;43.60;;;;;;5074630;28;20676;-76
2022/04/05 12:36:22;;;;;;;8.07;6.40;;;11.00;43.60;;;;;;5074419;28;20198;-76
2022/04/05 12:38:50;;;;;;;9.02;5.90;;;10.80;44.10;;;;;;5074565;28;20213;-75
2022/04/05 12:41:20;;;;;;;8.55;6.63;;;10.80;44.90;;;;;;5074525;28;20224;-75
2022/04/05 12:44:06;;;;;;;6.78;5.72;;;10.70;45.10;;;;;;5076863;28;20240;-78
2022/04/05 12:46:38;;;;;;;7.93;5.82;;;10.80;44.50;;;;;;5082098;28;20206;-77
2022/04/05 12:49:22;;;;;;;7.00;5.75;;;10.90;44.40;;;;;;5079828;28;20209;-76
2022/04/05 12:51:50;;;;;;;6.38;5.78;;;10.80;44.30;;;;;;5089386;28;20197;-76
2022/04/05 12:54:28;;;;;;;6.75;6.00;;;11.00;44.10;;;;;;5091454;28;20198;-75
2022/04/05 12:57:13;;;;;;;7.22;5.60;;;11.20;43.50;;;;;;5078525;28;20268;-76
2022/04/05 12:59:40;;;;;;;7.22;6.13;;;11.50;42.70;;;;;;5078405;28;20241;-77
2022/04/05 13:02:14;;;;;;;8.02;5.93;;;11.80;41.20;;;;;;5087546;28;20764;-77
2022/04/05 13:04:42;;;;;;;6.18;5.55;;;11.90;41.30;;;;;;5092699;28;20197;-77
2022/04/05 13:07:09;;;;;;;7.53;5.72;;;12.00;41.40;;;;;;5082750;28;20310;-76
2022/04/05 13:09:37;;;;;;;10.90;6.10;;;12.00;40.70;;;;;;5083894;28;20596;-76
2022/04/05 13:12:10;;;;;;;7.05;6.20;;;11.90;40.70;;;;;;5084124;28;20224;-76
2022/04/05 13:14:38;;;;;;;7.30;6.32;;;11.90;40.50;;;;;;5083747;28;20237;-75
2022/04/05 13:17:06;;;;;;;7.82;6.47;;;11.90;39.70;;;;;;5081106;28;20256;-77
2022/04/05 13:19:34;;;;;;;8.65;5.93;;;11.80;39.90;;;;;;5082572;28;20313;-76
2022/04/05 13:22:01;;;;;;;7.60;6.80;;;12.00;40.20;;;;;;5078548;28;20289;-76
2022/04/05 13:24:42;;;;;;;9.25;6.20;;;12.00;39.70;;;;;;5079443;28;20205;-76
2022/04/05 13:27:11;;;;;;;6.10;5.50;;;12.00;38.90;;;;;;5078002;28;20405;-75
2022/04/05 13:29:42;;;;;;;9.98;6.43;;;12.30;39.00;;;;;;5078105;28;20206;-76
2022/04/05 13:32:15;;;;;;;8.30;6.60;;;12.10;38.90;;;;;;5077746;28;20214;-75
2022/04/05 13:34:42;;;;;;;8.75;6.28;;;11.90;41.30;;;;;;5060315;28;20262;-76
2022/04/05 13:37:09;;;;;;;11.38;6.82;;;11.80;41.20;;;;;;5073403;28;20253;-77
2022/04/05 13:39:36;;;;;;;8.55;6.63;;;11.80;41.20;;;;;;5091085;28;20236;-77
2022/04/05 13:42:08;;;;;;;9.50;6.18;;;11.80;41.20;;;;;;5091543;28;20206;-77
2022/04/05 13:44:36;;;;;;;6.80;6.05;;;11.90;41.30;;;;;;5092684;28;20208;-78
2022/04/05 13:47:04;;;;;;;7.20;6.50;;;11.90;41.30;;;;;;5087601;28;20253;-77
2022/04/05 13:49:31;;;;;;;7.38;6.40;;;11.80;41.80;;;;;;5085494;28;20206;-78
2022/04/05 13:51:58;;;;;;;7.47;5.88;;;11.80;41.70;;;;;;5081793;28;20301;-78
2022/04/05 13:54:26;;;;;;;7.18;5.70;;;12.10;41.50;;;;;;5085585;28;20210;-78
2022/04/05 13:56:53;;;;;;;8.30;6.43;;;12.30;41.60;;;;;;5087709;28;20268;-77
2022/04/05 13:59:21;;;;;;;9.15;6.80;;;12.40;41.60;;;;;;5081062;28;20241;-77
2022/04/05 14:01:49;;;;;;;6.88;6.18;;;12.60;40.10;;;;;;5083375;28;20273;-78
2022/04/05 14:04:16;;;;;;;9.35;7.18;;;12.70;39.80;;;;;;5086485;28;20229;-78